Time;durP1;ratioP1;P1;durP2;ratioP2;P2;SDS_P1;SDS_P2;PMS_P1;PMS_P2;Temp;Humidity;BMP_temperature;BMP_pressure;BME280_temperature;BME280_humidity;BME280_pressure;Samples;Min_cycle;Max_cycle;Signal;HPM_P1;HPM_P2
2024/01/31 00:02:00;;;;;;;24.42;14.18;;;-1.70;1.00;;;;;;5186221;28;20182;-46
2024/01/31 00:04:31;;;;;;;23.05;15.32;;;-1.60;90.90;;;;;;5184790;28;20245;-46
2024/01/31 00:07:02;;;;;;;23.67;14.65;;;-1.60;69.80;;;;;;5178544;28;20035;-46
2024/01/31 00:09:34;;;;;;;25.65;14.65;;;-1.60;96.40;;;;;;5195752;28;20061;-46
2024/01/31 00:12:05;;;;;;;32.20;14.40;;;-1.50;99.90;;;;;;5188453;28;20031;-46
2024/01/31 00:14:36;;;;;;;24.50;14.27;;;-1.50;64.10;;;;;;5186543;28;20041;-46
2024/01/31 00:17:07;;;;;;;23.75;15.25;;;-1.50;1.00;;;;;;5165725;28;20037;-49
2024/01/31 00:19:38;;;;;;;21.98;14.02;;;-1.40;1.00;;;;;;5187471;28;20036;-46
2024/01/31 00:22:10;;;;;;;28.67;15.48;;;-1.50;1.00;;;;;;5175847;28;20067;-46
2024/01/31 00:24:41;;;;;;;25.55;16.05;;;-1.50;1.00;;;;;;5184782;28;20042;-46
2024/01/31 00:27:12;;;;;;;27.05;14.73;;;-1.70;1.00;;;;;;5186622;28;20063;-47
2024/01/31 00:29:43;;;;;;;23.05;14.95;;;-1.80;1.00;;;;;;5197767;28;20321;-46
2024/01/31 00:32:14;;;;;;;23.60;15.63;;;-1.70;80.10;;;;;;5203596;28;20218;-46
2024/01/31 00:34:46;;;;;;;31.60;16.70;;;-1.60;99.90;;;;;;5186915;28;20025;-45
2024/01/31 00:37:17;;;;;;;24.45;15.18;;;-1.70;77.30;;;;;;5193836;28;20210;-45
2024/01/31 00:39:48;;;;;;;27.55;14.20;;;-1.70;85.60;;;;;;5184846;28;20049;-45
2024/01/31 00:42:19;;;;;;;25.38;15.48;;;-1.70;99.90;;;;;;5198284;28;20210;-47
2024/01/31 00:44:51;;;;;;;24.35;14.73;;;-1.60;99.90;;;;;;5182147;28;20037;-47
2024/01/31 00:47:22;;;;;;;23.45;14.88;;;-1.70;24.50;;;;;;5181811;28;20167;-45
2024/01/31 00:49:53;;;;;;;27.98;14.93;;;-1.80;8.50;;;;;;5183736;28;20329;-45
2024/01/31 00:52:24;;;;;;;24.65;15.10;;;-1.90;63.40;;;;;;5180688;28;20316;-45
2024/01/31 00:54:55;;;;;;;25.05;14.10;;;-1.80;99.90;;;;;;5183287;28;20052;-45
2024/01/31 00:57:26;;;;;;;27.17;15.45;;;-1.70;99.90;;;;;;5177852;28;20063;-45
2024/01/31 00:59:58;;;;;;;27.83;15.43;;;-1.80;99.90;;;;;;5179523;28;20051;-45
2024/01/31 01:02:29;;;;;;;24.48;15.75;;;-1.90;99.90;;;;;;5165740;28;20041;-44
2024/01/31 01:05:00;;;;;;;23.92;15.57;;;-1.90;99.90;;;;;;5182833;28;20047;-45
2024/01/31 01:07:31;;;;;;;27.33;16.05;;;-1.80;99.90;;;;;;5179807;28;20029;-45
2024/01/31 01:10:03;;;;;;;26.15;14.77;;;-1.90;96.10;;;;;;5183449;28;20026;-44
2024/01/31 01:12:34;;;;;;;31.27;16.95;;;-1.90;99.90;;;;;;5185845;28;20040;-46
2024/01/31 01:15:06;;;;;;;24.55;14.90;;;-1.80;99.90;;;;;;5184050;28;20364;-45
2024/01/31 01:17:38;;;;;;;30.40;16.58;;;-1.90;99.90;;;;;;5185325;28;20453;-45
2024/01/31 01:20:09;;;;;;;30.75;16.85;;;-2.00;99.90;;;;;;5155610;28;20033;-45
2024/01/31 01:22:45;;;;;;;27.47;18.07;;;-2.10;99.90;;;;;;5191832;28;20238;-45
2024/01/31 01:25:16;;;;;;;24.52;15.45;;;-2.00;99.90;;;;;;5185472;28;20060;-44
2024/01/31 01:27:53;;;;;;;32.63;17.08;;;-2.00;99.90;;;;;;5185327;28;20241;-45
2024/01/31 01:30:24;;;;;;;29.85;18.33;;;-1.80;99.90;;;;;;5187393;28;20395;-45
2024/01/31 01:32:55;;;;;;;29.73;17.33;;;-1.80;99.90;;;;;;5207569;28;20025;-45
2024/01/31 01:35:27;;;;;;;32.47;18.05;;;-1.60;99.90;;;;;;5183449;28;20041;-45
2024/01/31 01:37:58;;;;;;;31.77;18.77;;;-1.60;99.90;;;;;;5192936;28;20033;-45
2024/01/31 01:40:29;;;;;;;31.30;18.17;;;-1.70;99.90;;;;;;5185020;28;20033;-45
2024/01/31 01:43:00;;;;;;;33.85;18.50;;;-1.70;99.90;;;;;;5186333;28;20244;-44
2024/01/31 01:45:32;;;;;;;28.63;17.67;;;-1.70;99.90;;;;;;5177969;28;20040;-44
2024/01/31 01:48:03;;;;;;;33.60;17.98;;;-1.80;99.90;;;;;;5188075;28;20387;-44
2024/01/31 01:50:34;;;;;;;29.65;18.58;;;-1.80;99.90;;;;;;5174056;28;20218;-45
2024/01/31 01:53:06;;;;;;;28.13;18.10;;;-1.80;99.90;;;;;;5174369;28;20033;-44
2024/01/31 01:55:41;;;;;;;35.15;19.38;;;-1.80;99.90;;;;;;5186257;28;20301;-44
2024/01/31 01:58:12;;;;;;;34.05;19.38;;;-1.80;99.90;;;;;;5185033;28;20036;-45
2024/01/31 02:00:46;;;;;;;33.60;19.17;;;-1.70;99.90;;;;;;5181676;28;20045;-45
2024/01/31 02:03:17;;;;;;;38.30;20.42;;;-1.80;99.90;;;;;;5184864;28;20368;-45
2024/01/31 02:05:49;;;;;;;33.78;18.65;;;-1.70;99.90;;;;;;5185144;28;20037;-45
2024/01/31 02:08:20;;;;;;;32.25;20.30;;;-1.70;99.90;;;;;;5178497;28;20191;-44
2024/01/31 02:10:51;;;;;;;33.42;18.75;;;-1.50;99.90;;;;;;5178393;28;20380;-44
2024/01/31 02:13:23;;;;;;;34.35;18.20;;;-1.40;99.90;;;;;;5185501;28;20033;-45
2024/01/31 02:15:56;;;;;;;31.75;18.52;;;-1.50;99.90;;;;;;5183271;28;20247;-44
2024/01/31 02:18:28;;;;;;;32.22;18.23;;;-1.60;99.90;;;;;;5200190;28;20539;-45
2024/01/31 02:20:59;;;;;;;32.72;18.55;;;-1.60;99.90;;;;;;5188833;28;20525;-44
2024/01/31 02:23:30;;;;;;;30.55;18.25;;;-1.70;92.20;;;;;;5179373;28;20217;-45
2024/01/31 02:26:02;;;;;;;31.05;18.02;;;-1.70;99.90;;;;;;5172500;28;20141;-45
2024/01/31 02:28:33;;;;;;;31.42;18.67;;;-1.60;99.90;;;;;;5191688;28;20047;-45
2024/01/31 02:31:04;;;;;;;28.98;17.95;;;-1.60;99.90;;;;;;5203012;28;20033;-48
2024/01/31 02:33:35;;;;;;;33.35;18.80;;;-1.60;99.90;;;;;;5187515;28;20029;-45
2024/01/31 02:36:06;;;;;;;32.22;18.52;;;-1.60;99.90;;;;;;5183663;28;20362;-46
2024/01/31 02:38:37;;;;;;;36.30;20.63;;;-1.50;99.90;;;;;;5189422;28;20071;-45
2024/01/31 02:41:09;;;;;;;34.03;20.58;;;-1.60;99.90;;;;;;5182383;28;20044;-45
2024/01/31 02:43:41;;;;;;;36.35;19.77;;;-1.60;99.90;;;;;;5199550;28;20029;-46
2024/01/31 02:46:13;;;;;;;36.20;19.42;;;-1.70;99.90;;;;;;5206971;28;20031;-46
2024/01/31 02:48:46;;;;;;;32.60;18.83;;;-1.60;99.90;;;;;;5208221;28;20240;-46
2024/01/31 02:51:17;;;;;;;31.88;19.52;;;-1.40;99.90;;;;;;5185061;28;20333;-45
2024/01/31 02:53:48;;;;;;;35.40;19.80;;;-1.40;99.90;;;;;;5182329;28;20270;-46
2024/01/31 02:56:19;;;;;;;30.73;19.20;;;-1.40;99.90;;;;;;5174955;28;20310;-48
2024/01/31 02:58:50;;;;;;;36.08;19.02;;;-1.40;79.60;;;;;;5184396;28;20463;-46
2024/01/31 03:01:21;;;;;;;35.30;20.50;;;-1.30;62.00;;;;;;5203977;28;20037;-46
2024/01/31 03:03:53;;;;;;;33.45;19.05;;;-1.30;18.20;;;;;;5188667;28;20029;-46
2024/01/31 03:06:24;;;;;;;30.58;18.13;;;-1.40;1.00;;;;;;5189053;28;20351;-46
2024/01/31 03:08:55;;;;;;;34.00;19.02;;;-1.30;1.00;;;;;;5184901;28;20040;-47
2024/01/31 03:11:26;;;;;;;34.00;19.65;;;-1.30;1.00;;;;;;5179611;28;20025;-47
2024/01/31 03:13:57;;;;;;;38.75;18.92;;;-1.20;1.00;;;;;;5178839;28;20040;-47
2024/01/31 03:16:28;;;;;;;32.13;18.25;;;-1.00;1.00;;;;;;5184938;28;20048;-45
2024/01/31 03:19:00;;;;;;;35.75;19.35;;;-0.90;1.00;;;;;;5188029;28;20104;-45
2024/01/31 03:21:31;;;;;;;30.58;19.02;;;-0.70;1.00;;;;;;5188167;28;20213;-50
2024/01/31 03:24:02;;;;;;;32.20;19.98;;;-0.80;1.00;;;;;;5186275;28;20033;-47
2024/01/31 03:26:34;;;;;;;34.63;19.60;;;-0.60;1.00;;;;;;5180397;28;20019;-46
2024/01/31 03:29:05;;;;;;;35.50;19.52;;;-0.20;1.00;;;;;;5178124;28;20313;-47
2024/01/31 03:31:36;;;;;;;32.25;20.10;;;-0.10;1.00;;;;;;5184175;28;20033;-45
2024/01/31 03:34:07;;;;;;;33.55;18.60;;;-0.30;1.00;;;;;;5177933;28;20323;-46
2024/01/31 03:36:39;;;;;;;33.90;20.08;;;-0.40;99.90;;;;;;5183691;28;20021;-45
2024/01/31 03:39:10;;;;;;;33.22;20.05;;;-0.50;99.90;;;;;;5177564;28;20026;-47
2024/01/31 03:41:44;;;;;;;31.15;19.27;;;-0.40;1.00;;;;;;5184335;28;20035;-46
2024/01/31 03:44:16;;;;;;;34.15;19.80;;;-0.40;1.00;;;;;;5181063;28;20087;-47
2024/01/31 03:46:47;;;;;;;38.95;22.23;;;-0.50;1.00;;;;;;5181926;28;20035;-49
2024/01/31 03:49:18;;;;;;;38.40;20.10;;;-0.40;1.00;;;;;;5193252;28;20305;-46
2024/01/31 03:51:49;;;;;;;31.60;19.30;;;-0.50;1.00;;;;;;5179699;28;20037;-46
2024/01/31 03:54:20;;;;;;;33.90;21.52;;;-0.50;1.00;;;;;;5170720;28;20037;-46
2024/01/31 03:56:51;;;;;;;35.22;20.40;;;-0.50;1.00;;;;;;5181599;28;20257;-44
2024/01/31 03:59:23;;;;;;;40.45;21.73;;;-0.50;1.00;;;;;;5179827;28;20030;-45
2024/01/31 04:01:55;;;;;;;32.10;20.50;;;-0.40;1.00;;;;;;5172872;28;20025;-45
2024/01/31 04:04:26;;;;;;;39.92;21.17;;;-0.10;1.00;;;;;;5188620;28;20326;-46
2024/01/31 04:06:57;;;;;;;39.35;21.52;;;-0.20;1.00;;;;;;5188942;28;20033;-46
2024/01/31 04:09:28;;;;;;;39.03;22.63;;;-0.20;1.00;;;;;;5182421;28;20035;-46
2024/01/31 04:11:59;;;;;;;37.55;22.23;;;0.10;1.00;;;;;;5196500;28;20321;-49
2024/01/31 04:14:30;;;;;;;36.88;21.67;;;-0.10;1.00;;;;;;5195776;28;20043;-45
2024/01/31 04:17:01;;;;;;;36.90;22.50;;;-0.20;1.00;;;;;;5191340;28;20287;-46
2024/01/31 04:19:33;;;;;;;36.88;21.73;;;-0.20;1.00;;;;;;5203720;28;20191;-46
2024/01/31 04:22:04;;;;;;;32.00;19.58;;;-0.10;1.00;;;;;;5170211;28;20021;-47
2024/01/31 04:24:37;;;;;;;31.17;19.92;;;0.00;1.00;;;;;;5184455;28;20296;-47
2024/01/31 04:27:08;;;;;;;40.58;21.48;;;0.00;1.00;;;;;;5185655;28;20229;-47
2024/01/31 04:29:42;;;;;;;35.15;19.35;;;-0.20;1.00;;;;;;5189190;28;20244;-47
2024/01/31 04:32:13;;;;;;;33.05;19.80;;;-0.20;1.00;;;;;;5184321;28;20029;-47
2024/01/31 04:34:44;;;;;;;31.67;18.73;;;-0.30;1.00;;;;;;5189760;28;20036;-45
2024/01/31 04:37:15;;;;;;;33.35;20.38;;;-0.20;1.00;;;;;;5207834;28;20036;-47
2024/01/31 04:39:50;;;;;;;34.85;19.92;;;-0.10;1.00;;;;;;5189950;28;20363;-47
2024/01/31 04:42:21;;;;;;;35.10;19.88;;;-0.20;1.00;;;;;;5178929;28;20257;-47
2024/01/31 04:44:52;;;;;;;32.15;19.38;;;-0.30;1.00;;;;;;5184090;28;20258;-47
2024/01/31 04:47:25;;;;;;;29.88;18.92;;;-0.40;1.00;;;;;;5183735;28;20033;-46
2024/01/31 04:49:58;;;;;;;35.90;19.90;;;-0.20;1.00;;;;;;5187901;28;20035;-47
2024/01/31 04:52:29;;;;;;;35.53;19.65;;;-0.20;1.00;;;;;;5190638;28;20043;-46
2024/01/31 04:55:00;;;;;;;37.75;20.85;;;0.20;1.00;;;;;;5202668;28;20052;-46
2024/01/31 04:57:32;;;;;;;31.42;18.52;;;0.00;99.90;;;;;;5184728;28;20292;-47
2024/01/31 05:00:04;;;;;;;33.40;19.38;;;-0.20;99.90;;;;;;5173800;28;20069;-46
2024/01/31 05:02:35;;;;;;;31.23;18.38;;;-0.30;99.90;;;;;;5186828;28;20451;-47
2024/01/31 05:05:07;;;;;;;32.47;20.02;;;0.00;1.00;;;;;;5183085;28;20339;-47
2024/01/31 05:07:38;;;;;;;33.75;20.20;;;0.00;99.90;;;;;;5194924;28;20056;-47
2024/01/31 05:10:10;;;;;;;34.75;20.63;;;0.30;1.00;;;;;;5194783;28;20260;-46
2024/01/31 05:12:41;;;;;;;33.15;20.48;;;0.10;99.90;;;;;;5196199;28;20348;-48
2024/01/31 05:15:12;;;;;;;32.40;19.40;;;0.10;99.90;;;;;;5170432;28;20033;-47
2024/01/31 05:17:43;;;;;;;30.35;19.77;;;0.10;99.90;;;;;;5201392;28;20035;-47
2024/01/31 05:20:15;;;;;;;32.00;19.20;;;0.10;99.90;;;;;;5197750;28;20024;-47
2024/01/31 05:22:46;;;;;;;37.20;21.77;;;-0.10;99.90;;;;;;5189649;28;20251;-46
2024/01/31 05:25:17;;;;;;;33.38;20.20;;;-0.10;1.00;;;;;;5175578;28;20041;-46
2024/01/31 05:27:49;;;;;;;35.13;19.23;;;0.00;1.00;;;;;;5176742;28;20040;-48
2024/01/31 05:30:21;;;;;;;31.67;19.67;;;0.20;1.00;;;;;;5171298;28;20320;-47
2024/01/31 05:32:52;;;;;;;36.40;20.75;;;0.00;99.90;;;;;;5178266;28;20041;-47
2024/01/31 05:35:24;;;;;;;34.45;21.35;;;-0.10;99.90;;;;;;5185791;28;20037;-45
2024/01/31 05:37:55;;;;;;;33.00;19.80;;;0.10;99.90;;;;;;5185472;28;20052;-47
2024/01/31 05:40:26;;;;;;;37.00;19.80;;;-0.10;99.90;;;;;;5198929;28;20046;-46
2024/01/31 05:42:58;;;;;;;43.22;25.77;;;-0.20;99.90;;;;;;5196479;28;20035;-46
2024/01/31 05:45:29;;;;;;;36.92;23.67;;;-0.10;1.00;;;;;;5165365;28;20045;-46
2024/01/31 05:48:01;;;;;;;36.63;21.95;;;-0.10;1.00;;;;;;5174040;28;20340;-47
2024/01/31 05:50:33;;;;;;;33.05;20.55;;;-0.30;1.00;;;;;;5169185;28;20513;-47
2024/01/31 05:53:04;;;;;;;34.45;21.63;;;-0.30;1.00;;;;;;5186141;28;20033;-47
2024/01/31 05:55:35;;;;;;;36.15;21.40;;;-0.50;1.00;;;;;;5182513;28;20037;-46
2024/01/31 05:58:06;;;;;;;32.83;20.05;;;-0.70;1.00;;;;;;5186108;28;20235;-45
2024/01/31 06:00:38;;;;;;;38.45;20.70;;;-0.50;1.00;;;;;;5181240;28;20177;-46
2024/01/31 06:03:09;;;;;;;34.20;20.63;;;-0.50;1.00;;;;;;5179436;28;20317;-46
2024/01/31 06:05:40;;;;;;;34.63;20.80;;;-0.50;1.00;;;;;;5181927;28;20029;-46
2024/01/31 06:08:11;;;;;;;40.05;23.15;;;-0.60;1.00;;;;;;5185282;28;20258;-45
2024/01/31 06:10:42;;;;;;;47.58;25.35;;;-0.10;1.00;;;;;;5184833;28;20026;-45
2024/01/31 06:13:13;;;;;;;42.83;25.00;;;-0.10;1.00;;;;;;5185163;28;20025;-45
2024/01/31 06:15:45;;;;;;;44.72;24.95;;;0.00;1.00;;;;;;5183458;28;20049;-45
2024/01/31 06:18:16;;;;;;;38.72;23.08;;;0.20;1.00;;;;;;5185093;28;20037;-46
2024/01/31 06:20:47;;;;;;;37.10;22.10;;;0.10;1.00;;;;;;5172078;28;20048;-46
2024/01/31 06:23:18;;;;;;;42.28;24.85;;;-0.10;1.00;;;;;;5185842;28;20191;-45
2024/01/31 06:25:49;;;;;;;38.50;22.58;;;0.20;1.00;;;;;;5185581;28;20205;-46
2024/01/31 06:28:21;;;;;;;41.75;23.80;;;0.30;1.00;;;;;;5200823;28;20325;-46
2024/01/31 06:30:59;;;;;;;38.10;23.25;;;0.30;1.00;;;;;;5183265;28;20474;-45
2024/01/31 06:33:32;;;;;;;39.60;23.88;;;0.30;1.00;;;;;;5182781;28;20245;-44
2024/01/31 06:36:04;;;;;;;38.22;22.40;;;0.60;1.00;;;;;;5179307;28;20146;-46
2024/01/31 06:38:35;;;;;;;38.92;20.63;;;0.60;99.90;;;;;;5182772;28;20057;-46
2024/01/31 06:41:07;;;;;;;37.30;22.27;;;0.60;99.90;;;;;;5185649;28;20029;-46
2024/01/31 06:43:38;;;;;;;35.78;21.35;;;0.60;99.90;;;;;;5184490;28;20337;-46
2024/01/31 06:46:10;;;;;;;37.35;22.17;;;0.60;99.90;;;;;;5181626;28;20309;-46
2024/01/31 06:48:41;;;;;;;36.50;21.92;;;0.50;99.90;;;;;;5186169;28;20044;-46
2024/01/31 06:51:12;;;;;;;36.92;21.30;;;0.70;99.90;;;;;;5183048;28;20202;-49
2024/01/31 06:53:44;;;;;;;55.17;34.03;;;0.50;1.00;;;;;;5168128;28;20093;-45
2024/01/31 06:56:19;;;;;;;111.32;66.43;;;0.30;1.00;;;;;;5182915;28;20033;-45
2024/01/31 06:58:51;;;;;;;41.75;25.65;;;0.10;99.90;;;;;;5177500;28;20241;-45
2024/01/31 07:01:22;;;;;;;41.67;24.80;;;0.00;99.90;;;;;;5179886;28;20298;-47
2024/01/31 07:03:53;;;;;;;42.35;24.85;;;0.10;1.00;;;;;;5181897;28;20313;-46
2024/01/31 07:06:25;;;;;;;44.50;25.13;;;0.10;1.00;;;;;;5174177;28;20217;-46
2024/01/31 07:08:56;;;;;;;42.90;24.58;;;0.30;1.00;;;;;;5186297;28;20256;-46
2024/01/31 07:11:27;;;;;;;42.65;25.48;;;0.40;1.00;;;;;;5183436;28;20092;-45
2024/01/31 07:13:58;;;;;;;44.00;24.48;;;0.40;1.00;;;;;;5175457;28;20205;-44
2024/01/31 07:16:29;;;;;;;36.88;22.88;;;0.50;1.00;;;;;;5163796;28;20333;-50
2024/01/31 07:19:00;;;;;;;42.58;24.58;;;0.90;99.90;;;;;;5186896;28;20135;-47
2024/01/31 07:21:31;;;;;;;37.65;22.30;;;1.00;99.90;;;;;;5183878;28;20361;-47
2024/01/31 07:24:04;;;;;;;36.55;22.75;;;1.10;51.80;;;;;;5172495;28;20216;-46
2024/01/31 07:26:35;;;;;;;37.38;23.52;;;1.30;1.00;;;;;;5192050;28;20474;-45
2024/01/31 07:29:10;;;;;;;41.92;24.70;;;1.30;99.90;;;;;;5190154;28;20388;-45
2024/01/31 07:31:41;;;;;;;40.70;24.17;;;1.30;99.90;;;;;;5187188;28;20030;-46
2024/01/31 07:34:12;;;;;;;40.38;23.40;;;1.10;24.30;;;;;;5187685;28;20281;-46
2024/01/31 07:36:43;;;;;;;39.25;23.98;;;1.00;1.00;;;;;;5188221;28;20228;-45
2024/01/31 07:39:14;;;;;;;43.92;24.55;;;0.90;59.10;;;;;;5183121;28;20025;-46
2024/01/31 07:41:46;;;;;;;44.67;25.55;;;0.90;99.90;;;;;;5180013;28;20292;-46
2024/01/31 07:44:17;;;;;;;39.85;25.05;;;0.80;1.00;;;;;;5187336;28;20293;-46
2024/01/31 07:46:48;;;;;;;40.35;24.02;;;1.00;1.00;;;;;;5185523;28;20064;-47
2024/01/31 07:49:20;;;;;;;39.58;23.90;;;1.20;1.00;;;;;;5202934;28;20226;-45
2024/01/31 07:51:56;;;;;;;35.72;22.98;;;1.30;99.90;;;;;;5189046;28;20030;-45
2024/01/31 07:54:27;;;;;;;36.65;22.88;;;1.30;99.90;;;;;;5188400;28;20221;-43
2024/01/31 07:56:59;;;;;;;38.95;23.35;;;1.60;1.00;;;;;;5179446;28;20328;-47
2024/01/31 07:59:30;;;;;;;37.67;23.95;;;1.60;1.00;;;;;;5186324;28;20162;-45
2024/01/31 08:02:01;;;;;;;43.30;25.33;;;1.60;99.90;;;;;;5182934;28;20036;-45
2024/01/31 08:04:33;;;;;;;40.80;23.30;;;1.80;1.00;;;;;;5185682;28;20352;-44
2024/01/31 08:07:04;;;;;;;38.08;24.17;;;1.70;99.90;;;;;;5173804;28;20029;-45
2024/01/31 08:09:39;;;;;;;38.03;23.98;;;1.80;1.00;;;;;;5180973;28;20037;-46
2024/01/31 08:12:10;;;;;;;38.35;24.27;;;1.90;1.00;;;;;;5173843;28;20035;-45
2024/01/31 08:14:41;;;;;;;39.38;24.70;;;2.10;99.90;;;;;;5178991;28;20048;-45
2024/01/31 08:17:12;;;;;;;36.25;23.65;;;2.20;1.00;;;;;;5192484;28;20033;-48
2024/01/31 08:19:43;;;;;;;35.63;22.45;;;2.40;1.00;;;;;;5182708;28;20037;-45
2024/01/31 08:22:14;;;;;;;39.55;22.38;;;2.20;1.00;;;;;;5186723;28;20396;-45
2024/01/31 08:24:46;;;;;;;36.38;22.33;;;2.30;99.90;;;;;;5179351;28;20033;-46
2024/01/31 08:27:19;;;;;;;37.25;23.30;;;2.50;1.00;;;;;;5186207;28;20056;-46
2024/01/31 08:29:54;;;;;;;37.35;24.08;;;2.50;99.90;;;;;;5167639;28;20295;-46
2024/01/31 08:32:25;;;;;;;;;;;2.40;1.00;;;;;;5178578;28;20033;-45
2024/01/31 08:34:56;;;;;;;41.47;23.20;;;2.20;1.00;;;;;;5187438;28;19909;-45
2024/01/31 08:37:27;;;;;;;37.20;24.23;;;2.20;99.90;;;;;;5183692;28;20041;-46
2024/01/31 08:39:59;;;;;;;35.60;22.52;;;2.10;99.90;;;;;;5185513;28;20025;-46
2024/01/31 08:42:30;;;;;;;36.47;22.88;;;2.30;99.90;;;;;;5176258;28;20033;-46
2024/01/31 08:45:01;;;;;;;42.05;23.17;;;2.20;99.90;;;;;;5186339;28;20033;-46
2024/01/31 08:47:32;;;;;;;40.67;22.80;;;2.00;1.00;;;;;;5159996;28;20435;-47
2024/01/31 08:50:04;;;;;;;45.58;24.73;;;2.00;30.30;;;;;;5184673;28;20300;-51
2024/01/31 08:52:35;;;;;;;41.72;24.08;;;1.90;99.90;;;;;;5175547;28;20029;-47
2024/01/31 08:55:06;;;;;;;49.95;26.33;;;2.00;1.00;;;;;;5186431;28;20037;-46
2024/01/31 08:57:38;;;;;;;40.38;24.70;;;2.20;1.00;;;;;;5182398;28;20334;-47
2024/01/31 09:00:10;;;;;;;45.60;25.75;;;2.30;1.00;;;;;;5180958;28;20229;-48
2024/01/31 09:02:41;;;;;;;44.10;24.92;;;2.20;1.00;;;;;;5188921;28;20326;-47
2024/01/31 09:05:12;;;;;;;43.63;25.60;;;2.10;1.00;;;;;;5183351;28;20030;-47
2024/01/31 09:07:44;;;;;;;40.08;24.98;;;2.20;99.90;;;;;;5186351;28;20024;-48
2024/01/31 09:10:15;;;;;;;39.17;25.23;;;2.10;99.90;;;;;;5192756;28;20351;-50
2024/01/31 09:12:46;;;;;;;40.92;24.67;;;2.20;1.00;;;;;;5192362;28;20035;-48
2024/01/31 09:15:17;;;;;;;40.00;24.48;;;2.20;1.00;;;;;;5175322;28;20067;-49
2024/01/31 09:17:48;;;;;;;42.92;25.10;;;2.30;1.00;;;;;;5176708;28;20029;-49
2024/01/31 09:20:20;;;;;;;40.60;26.20;;;2.40;1.00;;;;;;5192593;28;20036;-49
2024/01/31 09:22:51;;;;;;;44.22;24.17;;;2.40;99.90;;;;;;5172328;28;20325;-49
2024/01/31 09:25:22;;;;;;;42.30;25.85;;;2.70;99.90;;;;;;5181513;28;20040;-49
2024/01/31 09:27:53;;;;;;;42.03;25.38;;;2.90;1.00;;;;;;5173316;28;20301;-49
2024/01/31 09:30:25;;;;;;;42.88;25.35;;;2.90;1.00;;;;;;5164590;28;20347;-49
2024/01/31 09:32:56;;;;;;;40.55;25.70;;;3.00;1.00;;;;;;5175099;28;20206;-50
2024/01/31 09:35:27;;;;;;;37.97;24.48;;;3.30;99.90;;;;;;5184330;28;20041;-50
2024/01/31 09:37:58;;;;;;;41.53;24.60;;;3.50;1.00;;;;;;5179357;28;20039;-49
2024/01/31 09:40:30;;;;;;;37.47;23.80;;;3.60;99.90;;;;;;5174342;28;20226;-50
2024/01/31 09:43:02;;;;;;;37.22;24.65;;;3.90;99.90;;;;;;5183377;28;20198;-51
2024/01/31 09:45:37;;;;;;;41.85;25.45;;;3.90;99.90;;;;;;5182031;28;20025;-50
2024/01/31 09:48:12;;;;;;;37.95;23.98;;;4.10;99.90;;;;;;5177642;28;20028;-51
2024/01/31 09:50:43;;;;;;;;;;;4.40;1.00;;;;;;5177667;28;20305;-50
2024/01/31 09:53:15;;;;;;;36.38;23.38;;;4.60;1.00;;;;;;5177122;28;19919;-50
2024/01/31 09:55:46;;;;;;;38.35;24.10;;;4.60;1.00;;;;;;5196347;28;20056;-52
2024/01/31 09:58:18;;;;;;;37.13;22.55;;;4.70;1.00;;;;;;5184312;28;20281;-49
2024/01/31 10:00:51;;;;;;;42.75;23.70;;;4.70;1.00;;;;;;5180315;28;20036;-49
2024/01/31 10:03:22;;;;;;;34.20;23.45;;;5.00;1.00;;;;;;5185842;28;20218;-49
2024/01/31 10:05:53;;;;;;;35.08;22.50;;;5.20;1.00;;;;;;5172163;28;20307;-50
2024/01/31 10:08:29;;;;;;;34.55;22.77;;;5.20;1.00;;;;;;5181228;28;20337;-50
2024/01/31 10:11:00;;;;;;;36.47;22.58;;;5.20;1.00;;;;;;5184839;28;20319;-50
2024/01/31 10:13:31;;;;;;;30.50;21.70;;;5.10;1.00;;;;;;5186073;28;20037;-50
2024/01/31 10:16:03;;;;;;;32.13;21.80;;;5.20;1.00;;;;;;5182517;28;20376;-50
2024/01/31 10:18:34;;;;;;;32.85;21.90;;;5.30;1.00;;;;;;5185015;28;20029;-51
2024/01/31 10:21:05;;;;;;;32.50;21.73;;;5.40;1.00;;;;;;5185120;28;20151;-50
2024/01/31 10:23:36;;;;;;;32.85;21.00;;;5.40;1.00;;;;;;5175368;28;20399;-51
2024/01/31 10:26:08;;;;;;;34.85;22.67;;;5.60;1.00;;;;;;5180389;28;20044;-51
2024/01/31 10:28:39;;;;;;;33.78;22.30;;;5.90;1.00;;;;;;5175803;28;20396;-51
2024/01/31 10:31:10;;;;;;;32.53;22.92;;;5.90;99.90;;;;;;5178329;28;20029;-51
2024/01/31 10:33:41;;;;;;;34.50;22.40;;;6.00;1.00;;;;;;5184073;28;20028;-50
2024/01/31 10:36:13;;;;;;;34.88;21.55;;;6.10;1.00;;;;;;5179518;28;20021;-51
2024/01/31 10:38:45;;;;;;;34.03;23.00;;;6.40;99.90;;;;;;5177348;28;20283;-50
2024/01/31 10:41:19;;;;;;;31.63;21.45;;;6.20;99.90;;;;;;5170563;28;20273;-50
2024/01/31 10:43:52;;;;;;;33.40;22.10;;;6.30;91.30;;;;;;5195243;28;20029;-50
2024/01/31 10:46:23;;;;;;;32.67;22.65;;;6.40;99.90;;;;;;5185279;28;20025;-50
2024/01/31 10:48:55;;;;;;;32.47;22.48;;;6.60;1.00;;;;;;5165902;28;20583;-50
2024/01/31 10:51:27;;;;;;;34.35;22.40;;;6.50;1.00;;;;;;5179510;28;20033;-50
2024/01/31 10:53:59;;;;;;;37.72;22.98;;;6.50;1.00;;;;;;5183855;28;20302;-51
2024/01/31 10:56:31;;;;;;;30.73;22.63;;;6.80;1.00;;;;;;5174330;28;20317;-51
2024/01/31 10:59:02;;;;;;;34.10;22.33;;;6.70;1.00;;;;;;5166060;28;20033;-50
2024/01/31 11:01:34;;;;;;;32.95;22.05;;;6.70;1.00;;;;;;5180512;28;20273;-51
2024/01/31 11:04:08;;;;;;;30.52;21.83;;;6.90;1.00;;;;;;5176639;28;20025;-50
2024/01/31 11:06:40;;;;;;;31.15;21.92;;;7.60;1.00;;;;;;5182019;28;20355;-51
2024/01/31 11:09:40;;;;;;;28.02;20.05;;;8.00;1.00;;;;;;5125192;28;20040;-50
2024/01/31 11:12:14;;;;;;;33.10;22.45;;;8.20;1.00;;;;;;5153849;28;20052;-50
2024/01/31 11:14:47;;;;;;;;;;;8.00;99.90;;;;;;5180377;28;20407;-50
2024/01/31 11:17:23;;;;;;;31.73;21.45;;;7.90;99.90;;;;;;5182016;28;19915;-50
2024/01/31 11:19:59;;;;;;;32.05;21.70;;;7.80;99.90;;;;;;5186907;28;20044;-50
2024/01/31 11:22:30;;;;;;;35.83;24.17;;;8.40;99.90;;;;;;5186272;28;20512;-50
2024/01/31 11:25:06;;;;;;;29.40;21.70;;;8.40;99.90;;;;;;5187398;28;20139;-50
2024/01/31 11:27:37;;;;;;;30.58;21.85;;;8.00;99.90;;;;;;5181201;28;20029;-50
2024/01/31 11:30:09;;;;;;;30.52;22.20;;;8.00;99.90;;;;;;5163937;28;20281;-50
2024/01/31 11:32:41;;;;;;;31.55;21.88;;;8.00;99.90;;;;;;5182527;28;20344;-50
2024/01/31 11:35:13;;;;;;;33.13;23.48;;;7.90;99.90;;;;;;5184499;28;20060;-50
2024/01/31 11:37:44;;;;;;;33.17;22.15;;;7.80;99.90;;;;;;5184794;28;20367;-51
2024/01/31 11:40:15;;;;;;;33.47;22.80;;;7.90;99.90;;;;;;5185778;28;20249;-50
2024/01/31 11:42:47;;;;;;;33.95;22.63;;;8.20;99.90;;;;;;5186841;28;20033;-50
2024/01/31 11:45:20;;;;;;;32.75;22.58;;;8.20;99.90;;;;;;5171541;28;20289;-50
2024/01/31 11:47:55;;;;;;;30.25;20.88;;;8.60;99.90;;;;;;5177149;28;20061;-50
2024/01/31 11:50:27;;;;;;;33.65;22.52;;;7.90;48.90;;;;;;5168585;28;20056;-52
2024/01/31 11:52:58;;;;;;;29.85;21.73;;;7.50;99.90;;;;;;5185393;28;20360;-51
2024/01/31 11:55:30;;;;;;;34.72;22.15;;;7.50;99.90;;;;;;5162675;28;20735;-50
2024/01/31 11:58:01;;;;;;;28.80;20.17;;;7.50;99.90;;;;;;5186835;28;20026;-50
2024/01/31 12:00:32;;;;;;;29.20;21.00;;;7.60;99.90;;;;;;5175958;28;20372;-50
2024/01/31 12:03:05;;;;;;;33.15;21.33;;;8.10;99.90;;;;;;5171841;28;20257;-51
2024/01/31 12:05:36;;;;;;;28.60;20.35;;;9.10;99.90;;;;;;5182738;28;20317;-50
2024/01/31 12:08:07;;;;;;;28.45;21.23;;;9.30;1.00;;;;;;5184368;28;20029;-50
2024/01/31 12:10:38;;;;;;;28.77;21.27;;;9.90;16.90;;;;;;5185324;28;20025;-50
2024/01/31 12:13:10;;;;;;;32.42;21.70;;;10.40;1.00;;;;;;5184662;28;20035;-50
2024/01/31 12:15:41;;;;;;;32.67;20.75;;;10.90;1.00;;;;;;5181563;28;20021;-51
2024/01/31 12:18:14;;;;;;;31.60;21.27;;;10.50;1.00;;;;;;5161375;28;20280;-50
2024/01/31 12:20:45;;;;;;;28.02;20.58;;;9.80;1.00;;;;;;5188127;28;20041;-49
2024/01/31 12:23:16;;;;;;;26.45;20.73;;;9.60;1.00;;;;;;5187155;28;20233;-50
2024/01/31 12:25:47;;;;;;;31.30;21.25;;;10.10;1.00;;;;;;5186263;28;20039;-49
2024/01/31 12:28:19;;;;;;;27.83;21.98;;;9.70;1.00;;;;;;5189862;28;20291;-49
2024/01/31 12:30:51;;;;;;;27.52;21.30;;;9.10;1.00;;;;;;5182378;28;20241;-49
2024/01/31 12:33:22;;;;;;;29.63;22.02;;;9.00;1.00;;;;;;5174446;28;20037;-50
2024/01/31 12:35:53;;;;;;;31.20;22.85;;;8.80;1.00;;;;;;5180426;28;20052;-49
2024/01/31 12:38:24;;;;;;;27.92;21.25;;;8.80;1.00;;;;;;5181526;28;20041;-50
2024/01/31 12:40:55;;;;;;;29.48;21.55;;;8.80;1.00;;;;;;5187455;28;20400;-49
2024/01/31 12:43:27;;;;;;;25.73;20.17;;;9.10;1.00;;;;;;5184000;28;20237;-52
2024/01/31 12:45:58;;;;;;;29.33;20.27;;;9.10;1.00;;;;;;5179982;28;20124;-51
2024/01/31 12:48:29;;;;;;;28.92;21.17;;;9.20;1.00;;;;;;5175328;28;20201;-51
2024/01/31 12:51:00;;;;;;;30.65;20.92;;;9.30;1.00;;;;;;5162192;28;20321;-50
2024/01/31 12:53:32;;;;;;;30.98;21.23;;;9.60;1.00;;;;;;5178597;28;20337;-50
2024/01/31 12:56:03;;;;;;;29.90;21.65;;;9.60;1.00;;;;;;5183916;28;20029;-51
2024/01/31 12:58:34;;;;;;;31.67;20.98;;;9.40;1.00;;;;;;5183237;28;20025;-51
2024/01/31 13:01:06;;;;;;;29.38;21.50;;;9.00;1.00;;;;;;5179863;28;20507;-49